sensor_id;sensor_type;location;lat;lon;timestamp;temperature;humidity
3528;DHT22;1778;47.966;7.854;2023-11-19T00:00:48;12.00;99.90
3528;DHT22;1778;47.966;7.854;2023-11-19T00:01:54;12.00;99.90
3528;DHT22;1778;47.966;7.854;2023-11-19T00:02:55;12.00;99.90
3528;DHT22;1778;47.966;7.854;2023-11-19T00:03:57;12.00;99.90
3528;DHT22;1778;47.966;7.854;2023-11-19T00:04:59;12.10;99.90
3528;DHT22;1778;47.966;7.854;2023-11-19T00:06:01;12.10;99.90
3528;DHT22;1778;47.966;7.854;2023-11-19T00:07:02;12.10;99.90
3528;DHT22;1778;47.966;7.854;2023-11-19T00:08:05;12.10;99.90
3528;DHT22;1778;47.966;7.854;2023-11-19T00:09:07;12.10;99.90
3528;DHT22;1778;47.966;7.854;2023-11-19T00:10:14;12.10;99.90
3528;DHT22;1778;47.966;7.854;2023-11-19T00:11:15;12.10;99.90
3528;DHT22;1778;47.966;7.854;2023-11-19T00:12:17;12.20;99.90
3528;DHT22;1778;47.966;7.854;2023-11-19T00:13:19;12.20;99.90
3528;DHT22;1778;47.966;7.854;2023-11-19T00:14:21;12.10;99.90
3528;DHT22;1778;47.966;7.854;2023-11-19T00:15:23;12.20;99.90
3528;DHT22;1778;47.966;7.854;2023-11-19T00:16:25;12.20;99.90
3528;DHT22;1778;47.966;7.854;2023-11-19T00:17:27;12.30;99.90
3528;DHT22;1778;47.966;7.854;2023-11-19T00:18:28;12.30;99.90
3528;DHT22;1778;47.966;7.854;2023-11-19T00:19:30;12.40;99.90
3528;DHT22;1778;47.966;7.854;2023-11-19T00:20:31;12.40;99.90
3528;DHT22;1778;47.966;7.854;2023-11-19T00:21:33;12.40;99.90
3528;DHT22;1778;47.966;7.854;2023-11-19T00:22:35;12.40;99.90
3528;DHT22;1778;47.966;7.854;2023-11-19T00:23:37;12.40;99.90
3528;DHT22;1778;47.966;7.854;2023-11-19T00:24:39;12.40;99.90
3528;DHT22;1778;47.966;7.854;2023-11-19T00:25:40;12.40;99.90
3528;DHT22;1778;47.966;7.854;2023-11-19T00:26:42;12.40;99.90
3528;DHT22;1778;47.966;7.854;2023-11-19T00:27:43;12.40;99.90
3528;DHT22;1778;47.966;7.854;2023-11-19T00:28:48;12.50;99.90
3528;DHT22;1778;47.966;7.854;2023-11-19T00:29:49;12.50;99.90
3528;DHT22;1778;47.966;7.854;2023-11-19T00:30:51;12.50;99.90
3528;DHT22;1778;47.966;7.854;2023-11-19T00:31:52;12.50;99.90
3528;DHT22;1778;47.966;7.854;2023-11-19T00:32:54;12.50;99.90
3528;DHT22;1778;47.966;7.854;2023-11-19T00:33:56;12.50;99.90
3528;DHT22;1778;47.966;7.854;2023-11-19T00:34:57;12.60;99.90
3528;DHT22;1778;47.966;7.854;2023-11-19T00:35:59;12.60;99.90
3528;DHT22;1778;47.966;7.854;2023-11-19T00:37:00;12.60;99.90
3528;DHT22;1778;47.966;7.854;2023-11-19T00:38:01;12.70;99.90
3528;DHT22;1778;47.966;7.854;2023-11-19T00:39:05;12.60;99.90
3528;DHT22;1778;47.966;7.854;2023-11-19T00:40:08;12.70;99.90
3528;DHT22;1778;47.966;7.854;2023-11-19T00:41:11;12.70;99.90
3528;DHT22;1778;47.966;7.854;2023-11-19T00:42:13;12.70;99.90
3528;DHT22;1778;47.966;7.854;2023-11-19T00:43:15;12.60;99.90
3528;DHT22;1778;47.966;7.854;2023-11-19T00:44:16;12.60;99.90
3528;DHT22;1778;47.966;7.854;2023-11-19T00:45:18;12.60;99.90
3528;DHT22;1778;47.966;7.854;2023-11-19T00:46:19;12.60;99.90
3528;DHT22;1778;47.966;7.854;2023-11-19T00:47:21;12.60;99.90
3528;DHT22;1778;47.966;7.854;2023-11-19T00:48:23;12.60;99.90
3528;DHT22;1778;47.966;7.854;2023-11-19T00:49:24;12.60;99.90
3528;DHT22;1778;47.966;7.854;2023-11-19T00:50:26;12.60;99.90
3528;DHT22;1778;47.966;7.854;2023-11-19T00:51:27;12.70;99.90
3528;DHT22;1778;47.966;7.854;2023-11-19T00:52:28;12.70;99.90
3528;DHT22;1778;47.966;7.854;2023-11-19T00:53:31;12.70;99.90
3528;DHT22;1778;47.966;7.854;2023-11-19T00:54:36;12.70;99.90
3528;DHT22;1778;47.966;7.854;2023-11-19T00:55:37;12.70;99.90
3528;DHT22;1778;47.966;7.854;2023-11-19T00:56:47;12.70;99.90
3528;DHT22;1778;47.966;7.854;2023-11-19T00:57:48;12.80;99.90
3528;DHT22;1778;47.966;7.854;2023-11-19T00:58:50;12.80;99.90
3528;DHT22;1778;47.966;7.854;2023-11-19T00:59:52;12.80;99.90
3528;DHT22;1778;47.966;7.854;2023-11-19T01:00:53;12.80;99.90
3528;DHT22;1778;47.966;7.854;2023-11-19T01:01:55;12.80;99.90
3528;DHT22;1778;47.966;7.854;2023-11-19T01:02:57;12.80;99.90
3528;DHT22;1778;47.966;7.854;2023-11-19T01:03:59;12.80;99.90
3528;DHT22;1778;47.966;7.854;2023-11-19T01:05:01;12.80;99.90
3528;DHT22;1778;47.966;7.854;2023-11-19T01:06:03;12.80;99.90
3528;DHT22;1778;47.966;7.854;2023-11-19T01:07:05;12.80;99.90
3528;DHT22;1778;47.966;7.854;2023-11-19T01:08:14;12.80;99.90
3528;DHT22;1778;47.966;7.854;2023-11-19T01:09:17;12.80;99.90
3528;DHT22;1778;47.966;7.854;2023-11-19T01:10:18;12.80;99.90
3528;DHT22;1778;47.966;7.854;2023-11-19T01:11:24;12.80;99.90
3528;DHT22;1778;47.966;7.854;2023-11-19T01:12:25;12.80;99.90
3528;DHT22;1778;47.966;7.854;2023-11-19T01:13:27;12.80;99.90
3528;DHT22;1778;47.966;7.854;2023-11-19T01:14:29;12.90;99.90
3528;DHT22;1778;47.966;7.854;2023-11-19T01:15:34;12.90;99.90
3528;DHT22;1778;47.966;7.854;2023-11-19T01:16:35;12.90;99.90
3528;DHT22;1778;47.966;7.854;2023-11-19T01:17:37;13.00;99.90
3528;DHT22;1778;47.966;7.854;2023-11-19T01:18:39;12.90;99.90
3528;DHT22;1778;47.966;7.854;2023-11-19T01:19:40;12.90;99.90
3528;DHT22;1778;47.966;7.854;2023-11-19T01:20:42;12.90;99.90
3528;DHT22;1778;47.966;7.854;2023-11-19T01:21:43;13.00;99.90
3528;DHT22;1778;47.966;7.854;2023-11-19T01:22:45;13.00;99.90
3528;DHT22;1778;47.966;7.854;2023-11-19T01:23:46;13.00;99.90
3528;DHT22;1778;47.966;7.854;2023-11-19T01:24:47;13.00;99.90
3528;DHT22;1778;47.966;7.854;2023-11-19T01:25:49;13.00;99.90
3528;DHT22;1778;47.966;7.854;2023-11-19T01:26:50;13.00;99.90
3528;DHT22;1778;47.966;7.854;2023-11-19T01:27:52;13.00;99.90
3528;DHT22;1778;47.966;7.854;2023-11-19T01:28:54;13.00;99.90
3528;DHT22;1778;47.966;7.854;2023-11-19T01:29:55;13.10;99.90
3528;DHT22;1778;47.966;7.854;2023-11-19T01:30:57;13.10;99.90
3528;DHT22;1778;47.966;7.854;2023-11-19T01:31:59;13.10;99.90
3528;DHT22;1778;47.966;7.854;2023-11-19T01:33:00;13.20;99.90
3528;DHT22;1778;47.966;7.854;2023-11-19T01:34:02;13.20;99.90
3528;DHT22;1778;47.966;7.854;2023-11-19T01:35:04;13.20;99.90
3528;DHT22;1778;47.966;7.854;2023-11-19T01:36:06;13.20;99.90
3528;DHT22;1778;47.966;7.854;2023-11-19T01:37:09;13.20;99.90
3528;DHT22;1778;47.966;7.854;2023-11-19T01:38:11;13.20;99.90
3528;DHT22;1778;47.966;7.854;2023-11-19T01:39:13;13.20;99.90
3528;DHT22;1778;47.966;7.854;2023-11-19T01:40:20;13.20;99.90
3528;DHT22;1778;47.966;7.854;2023-11-19T01:41:22;13.20;99.90
3528;DHT22;1778;47.966;7.854;2023-11-19T01:42:23;13.20;99.90
3528;DHT22;1778;47.966;7.854;2023-11-19T01:43:38;13.20;99.90
3528;DHT22;1778;47.966;7.854;2023-11-19T01:44:42;13.20;99.90
3528;DHT22;1778;47.966;7.854;2023-11-19T01:45:55;13.20;99.90
3528;DHT22;1778;47.966;7.854;2023-11-19T01:46:57;13.20;99.90
3528;DHT22;1778;47.966;7.854;2023-11-19T01:48:01;13.20;99.90
3528;DHT22;1778;47.966;7.854;2023-11-19T01:49:05;13.20;99.90
3528;DHT22;1778;47.966;7.854;2023-11-19T01:50:07;13.10;99.90
3528;DHT22;1778;47.966;7.854;2023-11-19T01:51:10;13.10;99.90
3528;DHT22;1778;47.966;7.854;2023-11-19T01:52:12;13.10;99.90
3528;DHT22;1778;47.966;7.854;2023-11-19T01:53:14;13.10;99.90
3528;DHT22;1778;47.966;7.854;2023-11-19T01:54:16;13.10;99.90
3528;DHT22;1778;47.966;7.854;2023-11-19T01:55:18;13.10;99.90
3528;DHT22;1778;47.966;7.854;2023-11-19T01:56:20;13.10;99.90
3528;DHT22;1778;47.966;7.854;2023-11-19T01:57:22;13.10;99.90
3528;DHT22;1778;47.966;7.854;2023-11-19T01:58:24;13.10;99.90
3528;DHT22;1778;47.966;7.854;2023-11-19T01:59:26;13.10;99.90
3528;DHT22;1778;47.966;7.854;2023-11-19T02:00:28;13.10;99.90
3528;DHT22;1778;47.966;7.854;2023-11-19T02:01:30;13.00;99.90
3528;DHT22;1778;47.966;7.854;2023-11-19T02:02:34;13.00;99.90
3528;DHT22;1778;47.966;7.854;2023-11-19T02:03:37;12.90;99.90
3528;DHT22;1778;47.966;7.854;2023-11-19T02:04:39;12.90;99.90
3528;DHT22;1778;47.966;7.854;2023-11-19T02:05:42;12.80;99.90
3528;DHT22;1778;47.966;7.854;2023-11-19T02:06:45;12.80;99.90
3528;DHT22;1778;47.966;7.854;2023-11-19T02:07:49;12.70;99.90
3528;DHT22;1778;47.966;7.854;2023-11-19T02:08:52;12.70;99.90
3528;DHT22;1778;47.966;7.854;2023-11-19T02:09:54;12.60;99.90
3528;DHT22;1778;47.966;7.854;2023-11-19T02:10:56;12.50;99.90
3528;DHT22;1778;47.966;7.854;2023-11-19T02:12:01;12.50;99.90
3528;DHT22;1778;47.966;7.854;2023-11-19T02:13:02;12.40;99.90
3528;DHT22;1778;47.966;7.854;2023-11-19T02:14:07;12.40;99.90
3528;DHT22;1778;47.966;7.854;2023-11-19T02:15:10;12.40;99.90
3528;DHT22;1778;47.966;7.854;2023-11-19T02:16:11;12.30;99.90
3528;DHT22;1778;47.966;7.854;2023-11-19T02:17:45;12.30;99.90
3528;DHT22;1778;47.966;7.854;2023-11-19T02:18:47;12.40;99.90
3528;DHT22;1778;47.966;7.854;2023-11-19T02:19:49;12.30;99.90
3528;DHT22;1778;47.966;7.854;2023-11-19T02:20:51;12.30;99.90
3528;DHT22;1778;47.966;7.854;2023-11-19T02:21:53;12.30;99.90
3528;DHT22;1778;47.966;7.854;2023-11-19T02:22:54;12.30;99.90
3528;DHT22;1778;47.966;7.854;2023-11-19T02:23:56;12.30;99.90
3528;DHT22;1778;47.966;7.854;2023-11-19T02:25:21;12.30;99.90
3528;DHT22;1778;47.966;7.854;2023-11-19T02:27:22;12.20;99.90
3528;DHT22;1778;47.966;7.854;2023-11-19T02:28:03;12.20;99.90
3528;DHT22;1778;47.966;7.854;2023-11-19T02:29:06;12.10;99.90
3528;DHT22;1778;47.966;7.854;2023-11-19T02:30:09;12.10;99.90
3528;DHT22;1778;47.966;7.854;2023-11-19T02:31:11;12.10;99.90
3528;DHT22;1778;47.966;7.854;2023-11-19T02:32:15;12.00;99.90
3528;DHT22;1778;47.966;7.854;2023-11-19T02:33:17;12.00;99.90
3528;DHT22;1778;47.966;7.854;2023-11-19T02:34:19;12.00;99.90
3528;DHT22;1778;47.966;7.854;2023-11-19T02:35:22;12.00;99.90
3528;DHT22;1778;47.966;7.854;2023-11-19T02:36:23;12.00;99.90
3528;DHT22;1778;47.966;7.854;2023-11-19T02:37:25;11.90;99.90
3528;DHT22;1778;47.966;7.854;2023-11-19T02:38:27;11.90;99.90
3528;DHT22;1778;47.966;7.854;2023-11-19T02:39:28;11.90;99.90
3528;DHT22;1778;47.966;7.854;2023-11-19T02:40:30;11.80;99.90
3528;DHT22;1778;47.966;7.854;2023-11-19T02:41:31;11.80;99.90
3528;DHT22;1778;47.966;7.854;2023-11-19T02:42:33;11.80;99.90
3528;DHT22;1778;47.966;7.854;2023-11-19T02:43:35;11.70;99.90
3528;DHT22;1778;47.966;7.854;2023-11-19T02:44:36;11.80;99.90
3528;DHT22;1778;47.966;7.854;2023-11-19T02:45:38;11.70;99.90
3528;DHT22;1778;47.966;7.854;2023-11-19T02:46:39;11.70;99.90
3528;DHT22;1778;47.966;7.854;2023-11-19T02:47:44;11.70;99.90
3528;DHT22;1778;47.966;7.854;2023-11-19T02:48:48;11.70;99.90
3528;DHT22;1778;47.966;7.854;2023-11-19T02:49:50;11.70;99.90
3528;DHT22;1778;47.966;7.854;2023-11-19T02:50:51;11.70;99.90
3528;DHT22;1778;47.966;7.854;2023-11-19T02:51:53;11.70;99.90
3528;DHT22;1778;47.966;7.854;2023-11-19T02:52:55;11.70;99.90
3528;DHT22;1778;47.966;7.854;2023-11-19T02:53:58;11.60;99.90
3528;DHT22;1778;47.966;7.854;2023-11-19T02:54:59;11.60;99.90
3528;DHT22;1778;47.966;7.854;2023-11-19T02:56:01;11.50;99.90
3528;DHT22;1778;47.966;7.854;2023-11-19T02:57:08;11.60;99.90
3528;DHT22;1778;47.966;7.854;2023-11-19T02:58:23;11.60;99.90
3528;DHT22;1778;47.966;7.854;2023-11-19T02:59:26;11.60;99.90
3528;DHT22;1778;47.966;7.854;2023-11-19T03:00:40;11.60;99.90
3528;DHT22;1778;47.966;7.854;2023-11-19T03:01:49;11.50;99.90
3528;DHT22;1778;47.966;7.854;2023-11-19T03:02:52;11.60;99.90
3528;DHT22;1778;47.966;7.854;2023-11-19T03:04:01;11.60;99.90
3528;DHT22;1778;47.966;7.854;2023-11-19T03:05:04;11.60;99.90
3528;DHT22;1778;47.966;7.854;2023-11-19T03:06:07;11.60;99.90
3528;DHT22;1778;47.966;7.854;2023-11-19T03:07:09;11.60;99.90
3528;DHT22;1778;47.966;7.854;2023-11-19T03:08:10;11.50;99.90
3528;DHT22;1778;47.966;7.854;2023-11-19T03:09:23;11.50;99.90
3528;DHT22;1778;47.966;7.854;2023-11-19T03:10:25;11.50;99.90
3528;DHT22;1778;47.966;7.854;2023-11-19T03:11:27;11.50;99.90
3528;DHT22;1778;47.966;7.854;2023-11-19T03:12:28;11.50;99.90
3528;DHT22;1778;47.966;7.854;2023-11-19T03:13:30;11.50;99.90
3528;DHT22;1778;47.966;7.854;2023-11-19T03:14:33;11.50;99.90
3528;DHT22;1778;47.966;7.854;2023-11-19T03:15:36;11.50;99.90
3528;DHT22;1778;47.966;7.854;2023-11-19T03:16:37;11.50;99.90
3528;DHT22;1778;47.966;7.854;2023-11-19T03:17:39;11.60;99.90
3528;DHT22;1778;47.966;7.854;2023-11-19T03:18:41;11.60;99.90
3528;DHT22;1778;47.966;7.854;2023-11-19T03:19:43;11.60;99.90
3528;DHT22;1778;47.966;7.854;2023-11-19T03:20:46;11.60;99.90
3528;DHT22;1778;47.966;7.854;2023-11-19T03:21:48;11.60;99.90
3528;DHT22;1778;47.966;7.854;2023-11-19T03:22:50;11.60;99.90
3528;DHT22;1778;47.966;7.854;2023-11-19T03:23:53;11.60;99.90
3528;DHT22;1778;47.966;7.854;2023-11-19T03:24:54;11.60;99.90
3528;DHT22;1778;47.966;7.854;2023-11-19T03:25:56;11.60;99.90
3528;DHT22;1778;47.966;7.854;2023-11-19T03:26:58;11.60;99.90
3528;DHT22;1778;47.966;7.854;2023-11-19T03:28:00;11.60;99.90
3528;DHT22;1778;47.966;7.854;2023-11-19T03:29:03;11.60;99.90
3528;DHT22;1778;47.966;7.854;2023-11-19T03:30:06;11.60;99.90
3528;DHT22;1778;47.966;7.854;2023-11-19T03:31:07;11.70;99.90
3528;DHT22;1778;47.966;7.854;2023-11-19T03:32:10;11.70;99.90
3528;DHT22;1778;47.966;7.854;2023-11-19T03:33:13;11.70;99.90
3528;DHT22;1778;47.966;7.854;2023-11-19T03:34:15;11.60;99.90
3528;DHT22;1778;47.966;7.854;2023-11-19T03:35:16;11.60;99.90
3528;DHT22;1778;47.966;7.854;2023-11-19T03:36:18;11.70;99.90
3528;DHT22;1778;47.966;7.854;2023-11-19T03:37:19;11.70;99.90
3528;DHT22;1778;47.966;7.854;2023-11-19T03:38:21;11.70;99.90
3528;DHT22;1778;47.966;7.854;2023-11-19T03:39:22;11.80;99.90
3528;DHT22;1778;47.966;7.854;2023-11-19T03:40:26;11.70;99.90
3528;DHT22;1778;47.966;7.854;2023-11-19T03:41:28;11.70;99.90
3528;DHT22;1778;47.966;7.854;2023-11-19T03:42:29;11.70;99.90
3528;DHT22;1778;47.966;7.854;2023-11-19T03:43:31;11.80;99.90
3528;DHT22;1778;47.966;7.854;2023-11-19T03:44:33;11.70;99.90
3528;DHT22;1778;47.966;7.854;2023-11-19T03:45:35;11.70;99.90
3528;DHT22;1778;47.966;7.854;2023-11-19T03:46:37;11.70;99.90
3528;DHT22;1778;47.966;7.854;2023-11-19T03:47:39;11.70;99.90
3528;DHT22;1778;47.966;7.854;2023-11-19T03:48:41;11.70;99.90
3528;DHT22;1778;47.966;7.854;2023-11-19T03:49:42;11.70;99.90
3528;DHT22;1778;47.966;7.854;2023-11-19T03:50:48;11.70;99.90
3528;DHT22;1778;47.966;7.854;2023-11-19T03:51:50;11.80;99.90
3528;DHT22;1778;47.966;7.854;2023-11-19T03:52:52;11.80;99.90
3528;DHT22;1778;47.966;7.854;2023-11-19T03:53:53;11.80;99.90
3528;DHT22;1778;47.966;7.854;2023-11-19T03:54:55;11.80;99.90
3528;DHT22;1778;47.966;7.854;2023-11-19T03:55:57;11.80;99.90
3528;DHT22;1778;47.966;7.854;2023-11-19T03:56:58;11.80;99.90
3528;DHT22;1778;47.966;7.854;2023-11-19T03:58:01;11.80;99.90
3528;DHT22;1778;47.966;7.854;2023-11-19T03:59:03;11.80;99.90
3528;DHT22;1778;47.966;7.854;2023-11-19T04:00:05;11.80;99.90
3528;DHT22;1778;47.966;7.854;2023-11-19T04:01:14;11.80;99.90
3528;DHT22;1778;47.966;7.854;2023-11-19T04:02:16;11.90;99.90
3528;DHT22;1778;47.966;7.854;2023-11-19T04:03:18;11.90;99.90
3528;DHT22;1778;47.966;7.854;2023-11-19T04:04:20;11.90;99.90
3528;DHT22;1778;47.966;7.854;2023-11-19T04:05:22;11.90;99.90
3528;DHT22;1778;47.966;7.854;2023-11-19T04:06:23;11.90;99.90
3528;DHT22;1778;47.966;7.854;2023-11-19T04:07:25;11.90;99.90
3528;DHT22;1778;47.966;7.854;2023-11-19T04:08:26;11.90;99.90
3528;DHT22;1778;47.966;7.854;2023-11-19T04:09:28;11.90;99.90
3528;DHT22;1778;47.966;7.854;2023-11-19T04:10:29;11.90;99.90
3528;DHT22;1778;47.966;7.854;2023-11-19T04:11:31;11.90;99.90
3528;DHT22;1778;47.966;7.854;2023-11-19T04:12:35;11.90;99.90
3528;DHT22;1778;47.966;7.854;2023-11-19T04:13:36;12.00;99.90
3528;DHT22;1778;47.966;7.854;2023-11-19T04:14:38;12.00;99.90
3528;DHT22;1778;47.966;7.854;2023-11-19T04:15:40;12.00;99.90
3528;DHT22;1778;47.966;7.854;2023-11-19T04:16:41;12.00;99.90
3528;DHT22;1778;47.966;7.854;2023-11-19T04:17:42;12.00;99.90
3528;DHT22;1778;47.966;7.854;2023-11-19T04:18:44;12.00;99.90
3528;DHT22;1778;47.966;7.854;2023-11-19T04:19:45;12.00;99.90
3528;DHT22;1778;47.966;7.854;2023-11-19T04:20:47;12.00;99.90
3528;DHT22;1778;47.966;7.854;2023-11-19T04:21:48;12.10;99.90
3528;DHT22;1778;47.966;7.854;2023-11-19T04:22:50;12.10;99.90
3528;DHT22;1778;47.966;7.854;2023-11-19T04:23:52;12.00;99.90
3528;DHT22;1778;47.966;7.854;2023-11-19T04:24:53;12.00;99.90
3528;DHT22;1778;47.966;7.854;2023-11-19T04:25:56;12.00;99.90
3528;DHT22;1778;47.966;7.854;2023-11-19T04:27:11;12.10;99.90
3528;DHT22;1778;47.966;7.854;2023-11-19T04:28:14;12.10;99.90
3528;DHT22;1778;47.966;7.854;2023-11-19T04:29:16;12.10;99.90
3528;DHT22;1778;47.966;7.854;2023-11-19T04:30:18;12.10;99.90
3528;DHT22;1778;47.966;7.854;2023-11-19T04:31:20;12.10;99.90
3528;DHT22;1778;47.966;7.854;2023-11-19T04:32:21;12.10;99.90
3528;DHT22;1778;47.966;7.854;2023-11-19T04:33:23;12.10;99.90
3528;DHT22;1778;47.966;7.854;2023-11-19T04:34:24;12.10;99.90
3528;DHT22;1778;47.966;7.854;2023-11-19T04:35:27;12.10;99.90
3528;DHT22;1778;47.966;7.854;2023-11-19T04:36:28;12.20;99.90
3528;DHT22;1778;47.966;7.854;2023-11-19T04:37:30;12.20;99.90
3528;DHT22;1778;47.966;7.854;2023-11-19T04:38:32;12.20;99.90
3528;DHT22;1778;47.966;7.854;2023-11-19T04:39:33;12.30;99.90
3528;DHT22;1778;47.966;7.854;2023-11-19T04:40:35;12.20;99.90
3528;DHT22;1778;47.966;7.854;2023-11-19T04:41:36;12.20;99.90
3528;DHT22;1778;47.966;7.854;2023-11-19T04:42:38;12.20;99.90
3528;DHT22;1778;47.966;7.854;2023-11-19T04:43:42;12.30;99.90
3528;DHT22;1778;47.966;7.854;2023-11-19T04:44:44;12.20;99.90
3528;DHT22;1778;47.966;7.854;2023-11-19T04:45:46;12.30;99.90
3528;DHT22;1778;47.966;7.854;2023-11-19T04:46:47;12.30;99.90
3528;DHT22;1778;47.966;7.854;2023-11-19T04:47:49;12.30;99.90
3528;DHT22;1778;47.966;7.854;2023-11-19T04:48:50;12.30;99.90
3528;DHT22;1778;47.966;7.854;2023-11-19T04:49:52;12.30;99.90
3528;DHT22;1778;47.966;7.854;2023-11-19T04:50:53;12.30;99.90
3528;DHT22;1778;47.966;7.854;2023-11-19T04:51:55;12.30;99.90
3528;DHT22;1778;47.966;7.854;2023-11-19T04:52:57;12.30;99.90
3528;DHT22;1778;47.966;7.854;2023-11-19T04:54:01;12.30;99.90
3528;DHT22;1778;47.966;7.854;2023-11-19T04:55:03;12.30;99.90
3528;DHT22;1778;47.966;7.854;2023-11-19T04:56:11;12.40;99.90
3528;DHT22;1778;47.966;7.854;2023-11-19T04:57:13;12.40;99.90
3528;DHT22;1778;47.966;7.854;2023-11-19T04:58:14;12.40;99.90
3528;DHT22;1778;47.966;7.854;2023-11-19T04:59:16;12.40;99.90
3528;DHT22;1778;47.966;7.854;2023-11-19T05:00:18;12.40;99.90
3528;DHT22;1778;47.966;7.854;2023-11-19T05:01:20;12.40;99.90
3528;DHT22;1778;47.966;7.854;2023-11-19T05:02:22;12.40;99.90
3528;DHT22;1778;47.966;7.854;2023-11-19T05:03:23;12.40;99.90
3528;DHT22;1778;47.966;7.854;2023-11-19T05:04:24;12.40;99.90
3528;DHT22;1778;47.966;7.854;2023-11-19T05:05:27;12.40;99.90
3528;DHT22;1778;47.966;7.854;2023-11-19T05:06:29;12.40;99.90
3528;DHT22;1778;47.966;7.854;2023-11-19T05:07:30;12.40;99.90
3528;DHT22;1778;47.966;7.854;2023-11-19T05:08:32;12.50;99.90
3528;DHT22;1778;47.966;7.854;2023-11-19T05:09:34;12.50;99.90
3528;DHT22;1778;47.966;7.854;2023-11-19T05:10:35;12.50;99.90
3528;DHT22;1778;47.966;7.854;2023-11-19T05:11:38;12.50;99.90
3528;DHT22;1778;47.966;7.854;2023-11-19T05:12:52;12.50;99.90
3528;DHT22;1778;47.966;7.854;2023-11-19T05:13:54;12.50;99.90
3528;DHT22;1778;47.966;7.854;2023-11-19T05:14:55;12.50;99.90
3528;DHT22;1778;47.966;7.854;2023-11-19T05:15:56;12.50;99.90
3528;DHT22;1778;47.966;7.854;2023-11-19T05:16:58;12.50;99.90
3528;DHT22;1778;47.966;7.854;2023-11-19T05:18:00;12.60;99.90
3528;DHT22;1778;47.966;7.854;2023-11-19T05:19:02;12.60;99.90
3528;DHT22;1778;47.966;7.854;2023-11-19T05:20:04;12.60;99.90
3528;DHT22;1778;47.966;7.854;2023-11-19T05:21:06;12.60;99.90
3528;DHT22;1778;47.966;7.854;2023-11-19T05:22:08;12.60;99.90
3528;DHT22;1778;47.966;7.854;2023-11-19T05:23:09;12.60;99.90
3528;DHT22;1778;47.966;7.854;2023-11-19T05:24:22;12.60;99.90
3528;DHT22;1778;47.966;7.854;2023-11-19T05:25:23;12.60;99.90
3528;DHT22;1778;47.966;7.854;2023-11-19T05:26:26;12.60;99.90
3528;DHT22;1778;47.966;7.854;2023-11-19T05:27:27;12.60;99.90
3528;DHT22;1778;47.966;7.854;2023-11-19T05:28:29;12.60;99.90
3528;DHT22;1778;47.966;7.854;2023-11-19T05:29:31;12.60;99.90
3528;DHT22;1778;47.966;7.854;2023-11-19T05:30:33;12.60;99.90
3528;DHT22;1778;47.966;7.854;2023-11-19T05:31:35;12.70;99.90
3528;DHT22;1778;47.966;7.854;2023-11-19T05:32:38;12.70;99.90
3528;DHT22;1778;47.966;7.854;2023-11-19T05:33:39;12.70;99.90
3528;DHT22;1778;47.966;7.854;2023-11-19T05:34:41;12.70;99.90
3528;DHT22;1778;47.966;7.854;2023-11-19T05:35:45;12.70;99.90
3528;DHT22;1778;47.966;7.854;2023-11-19T05:36:47;12.70;99.90
3528;DHT22;1778;47.966;7.854;2023-11-19T05:37:49;12.70;99.90
3528;DHT22;1778;47.966;7.854;2023-11-19T05:38:51;12.70;99.90
3528;DHT22;1778;47.966;7.854;2023-11-19T05:39:52;12.70;99.90
3528;DHT22;1778;47.966;7.854;2023-11-19T05:40:53;12.70;99.90
3528;DHT22;1778;47.966;7.854;2023-11-19T05:41:55;12.70;99.90
3528;DHT22;1778;47.966;7.854;2023-11-19T05:42:56;12.70;99.90
3528;DHT22;1778;47.966;7.854;2023-11-19T05:43:58;12.70;99.90
3528;DHT22;1778;47.966;7.854;2023-11-19T05:44:59;12.70;99.90
3528;DHT22;1778;47.966;7.854;2023-11-19T05:46:01;12.70;99.90
3528;DHT22;1778;47.966;7.854;2023-11-19T05:47:03;12.80;99.90
3528;DHT22;1778;47.966;7.854;2023-11-19T05:48:05;12.80;99.90
3528;DHT22;1778;47.966;7.854;2023-11-19T05:49:07;12.80;99.90
3528;DHT22;1778;47.966;7.854;2023-11-19T05:50:09;12.80;99.90
3528;DHT22;1778;47.966;7.854;2023-11-19T05:51:11;12.80;99.90
3528;DHT22;1778;47.966;7.854;2023-11-19T05:52:13;12.80;99.90
3528;DHT22;1778;47.966;7.854;2023-11-19T05:53:15;12.80;99.90
3528;DHT22;1778;47.966;7.854;2023-11-19T05:54:16;12.90;99.90
3528;DHT22;1778;47.966;7.854;2023-11-19T05:55:17;12.90;99.90
3528;DHT22;1778;47.966;7.854;2023-11-19T05:56:19;12.90;99.90
3528;DHT22;1778;47.966;7.854;2023-11-19T05:57:23;12.90;99.90
3528;DHT22;1778;47.966;7.854;2023-11-19T05:58:27;12.90;99.90
3528;DHT22;1778;47.966;7.854;2023-11-19T05:59:30;12.90;99.90
3528;DHT22;1778;47.966;7.854;2023-11-19T06:00:31;12.90;99.90
3528;DHT22;1778;47.966;7.854;2023-11-19T06:01:34;12.90;99.90
3528;DHT22;1778;47.966;7.854;2023-11-19T06:02:36;12.90;99.90
3528;DHT22;1778;47.966;7.854;2023-11-19T06:03:39;12.90;99.90
3528;DHT22;1778;47.966;7.854;2023-11-19T06:04:41;12.90;99.90
3528;DHT22;1778;47.966;7.854;2023-11-19T06:05:45;13.00;99.90
3528;DHT22;1778;47.966;7.854;2023-11-19T06:06:47;13.00;99.90
3528;DHT22;1778;47.966;7.854;2023-11-19T06:07:49;13.00;99.90
3528;DHT22;1778;47.966;7.854;2023-11-19T06:08:52;13.00;99.90
3528;DHT22;1778;47.966;7.854;2023-11-19T06:09:54;13.00;99.90
3528;DHT22;1778;47.966;7.854;2023-11-19T06:10:55;13.00;99.90
3528;DHT22;1778;47.966;7.854;2023-11-19T06:11:57;13.00;99.90
3528;DHT22;1778;47.966;7.854;2023-11-19T06:12:59;13.00;99.90
3528;DHT22;1778;47.966;7.854;2023-11-19T06:14:01;13.00;99.90
3528;DHT22;1778;47.966;7.854;2023-11-19T06:15:06;13.00;99.90
3528;DHT22;1778;47.966;7.854;2023-11-19T06:17:26;13.10;99.90
3528;DHT22;1778;47.966;7.854;2023-11-19T06:18:28;13.10;99.90
3528;DHT22;1778;47.966;7.854;2023-11-19T06:19:30;13.10;99.90
3528;DHT22;1778;47.966;7.854;2023-11-19T06:20:33;13.10;99.90
3528;DHT22;1778;47.966;7.854;2023-11-19T06:21:37;13.00;99.90
3528;DHT22;1778;47.966;7.854;2023-11-19T06:22:38;13.10;99.90
3528;DHT22;1778;47.966;7.854;2023-11-19T06:23:40;13.00;99.90
3528;DHT22;1778;47.966;7.854;2023-11-19T06:24:41;13.00;99.90
3528;DHT22;1778;47.966;7.854;2023-11-19T06:25:43;13.10;99.90
3528;DHT22;1778;47.966;7.854;2023-11-19T06:26:45;13.10;99.90
3528;DHT22;1778;47.966;7.854;2023-11-19T06:27:46;13.10;99.90
3528;DHT22;1778;47.966;7.854;2023-11-19T06:28:47;13.00;99.90
3528;DHT22;1778;47.966;7.854;2023-11-19T06:29:49;13.10;99.90
3528;DHT22;1778;47.966;7.854;2023-11-19T06:30:51;13.10;99.90
3528;DHT22;1778;47.966;7.854;2023-11-19T06:31:52;13.10;99.90
3528;DHT22;1778;47.966;7.854;2023-11-19T06:32:54;13.10;99.90
3528;DHT22;1778;47.966;7.854;2023-11-19T06:33:55;13.20;99.90
3528;DHT22;1778;47.966;7.854;2023-11-19T06:34:57;13.20;99.90
3528;DHT22;1778;47.966;7.854;2023-11-19T06:35:59;13.20;99.90
3528;DHT22;1778;47.966;7.854;2023-11-19T06:37:01;13.20;99.90
3528;DHT22;1778;47.966;7.854;2023-11-19T06:38:04;13.20;99.90
3528;DHT22;1778;47.966;7.854;2023-11-19T06:39:06;13.20;99.90
3528;DHT22;1778;47.966;7.854;2023-11-19T06:40:08;13.20;99.90
3528;DHT22;1778;47.966;7.854;2023-11-19T06:41:10;13.20;99.90
3528;DHT22;1778;47.966;7.854;2023-11-19T06:42:12;13.20;99.90
3528;DHT22;1778;47.966;7.854;2023-11-19T06:43:13;13.20;99.90
3528;DHT22;1778;47.966;7.854;2023-11-19T06:44:15;13.20;99.90
3528;DHT22;1778;47.966;7.854;2023-11-19T06:45:16;13.20;99.90
3528;DHT22;1778;47.966;7.854;2023-11-19T06:46:18;13.20;99.90
3528;DHT22;1778;47.966;7.854;2023-11-19T06:47:20;13.30;99.90
3528;DHT22;1778;47.966;7.854;2023-11-19T06:48:22;13.30;99.90
3528;DHT22;1778;47.966;7.854;2023-11-19T06:49:23;13.30;99.90
3528;DHT22;1778;47.966;7.854;2023-11-19T06:50:26;13.30;99.90